sensor_id;sensor_type;location;lat;lon;timestamp;temperature;humidity
8103;DHT22;4094;49.948;11.574;2023-04-25T00:01:17;13.40;59.40
8103;DHT22;4094;49.948;11.574;2023-04-25T00:03:47;13.30;59.40
8103;DHT22;4094;49.948;11.574;2023-04-25T00:06:17;13.40;59.50
8103;DHT22;4094;49.948;11.574;2023-04-25T00:08:47;13.40;59.40
8103;DHT22;4094;49.948;11.574;2023-04-25T00:11:16;13.30;59.40
8103;DHT22;4094;49.948;11.574;2023-04-25T00:13:45;13.30;59.50
8103;DHT22;4094;49.948;11.574;2023-04-25T00:16:14;13.30;59.60
8103;DHT22;4094;49.948;11.574;2023-04-25T00:18:45;13.30;59.50
8103;DHT22;4094;49.948;11.574;2023-04-25T00:21:18;13.30;59.70
8103;DHT22;4094;49.948;11.574;2023-04-25T00:23:47;13.30;59.80
8103;DHT22;4094;49.948;11.574;2023-04-25T00:26:17;13.30;59.70
8103;DHT22;4094;49.948;11.574;2023-04-25T00:28:46;13.30;59.60
8103;DHT22;4094;49.948;11.574;2023-04-25T00:31:15;13.30;59.60
8103;DHT22;4094;49.948;11.574;2023-04-25T00:33:46;13.30;59.70
8103;DHT22;4094;49.948;11.574;2023-04-25T00:36:16;13.30;59.60
8103;DHT22;4094;49.948;11.574;2023-04-25T00:38:46;13.30;59.70
8103;DHT22;4094;49.948;11.574;2023-04-25T00:41:15;13.30;59.80
8103;DHT22;4094;49.948;11.574;2023-04-25T00:43:44;13.30;59.90
8103;DHT22;4094;49.948;11.574;2023-04-25T00:46:15;13.30;59.90
8103;DHT22;4094;49.948;11.574;2023-04-25T00:48:45;13.40;59.90
8103;DHT22;4094;49.948;11.574;2023-04-25T00:51:18;13.30;59.70
8103;DHT22;4094;49.948;11.574;2023-04-25T00:53:49;13.40;59.60
8103;DHT22;4094;49.948;11.574;2023-04-25T00:56:19;13.30;59.60
8103;DHT22;4094;49.948;11.574;2023-04-25T00:58:49;13.40;59.60
8103;DHT22;4094;49.948;11.574;2023-04-25T01:01:19;13.30;59.70
8103;DHT22;4094;49.948;11.574;2023-04-25T01:03:50;13.30;59.70
8103;DHT22;4094;49.948;11.574;2023-04-25T01:06:21;13.30;59.80
8103;DHT22;4094;49.948;11.574;2023-04-25T01:08:51;13.30;59.80
8103;DHT22;4094;49.948;11.574;2023-04-25T01:11:21;13.30;59.70
8103;DHT22;4094;49.948;11.574;2023-04-25T01:13:51;13.30;59.80
8103;DHT22;4094;49.948;11.574;2023-04-25T01:16:20;13.30;60.00
8103;DHT22;4094;49.948;11.574;2023-04-25T01:18:53;13.30;59.90
8103;DHT22;4094;49.948;11.574;2023-04-25T01:21:24;13.30;59.90
8103;DHT22;4094;49.948;11.574;2023-04-25T01:23:56;13.30;59.90
8103;DHT22;4094;49.948;11.574;2023-04-25T01:26:25;13.30;59.80
8103;DHT22;4094;49.948;11.574;2023-04-25T01:28:55;13.30;60.00
8103;DHT22;4094;49.948;11.574;2023-04-25T01:31:27;13.30;60.00
8103;DHT22;4094;49.948;11.574;2023-04-25T01:33:57;13.30;60.00
8103;DHT22;4094;49.948;11.574;2023-04-25T01:36:30;13.30;60.10
8103;DHT22;4094;49.948;11.574;2023-04-25T01:39:01;13.30;60.40
8103;DHT22;4094;49.948;11.574;2023-04-25T01:41:30;13.30;60.30
8103;DHT22;4094;49.948;11.574;2023-04-25T01:44:00;13.30;60.20
8103;DHT22;4094;49.948;11.574;2023-04-25T01:46:30;13.30;60.10
8103;DHT22;4094;49.948;11.574;2023-04-25T01:48:59;13.30;60.20
8103;DHT22;4094;49.948;11.574;2023-04-25T01:51:30;13.30;60.30
8103;DHT22;4094;49.948;11.574;2023-04-25T01:54:00;13.30;60.40
8103;DHT22;4094;49.948;11.574;2023-04-25T01:56:31;13.30;60.40
8103;DHT22;4094;49.948;11.574;2023-04-25T01:59:02;13.30;60.50
8103;DHT22;4094;49.948;11.574;2023-04-25T02:01:50;13.30;60.50
8103;DHT22;4094;49.948;11.574;2023-04-25T02:04:28;13.20;60.40
8103;DHT22;4094;49.948;11.574;2023-04-25T02:06:58;13.20;60.70
8103;DHT22;4094;49.948;11.574;2023-04-25T02:09:36;13.20;60.60
8103;DHT22;4094;49.948;11.574;2023-04-25T02:12:09;13.20;60.70
8103;DHT22;4094;49.948;11.574;2023-04-25T02:15:05;13.20;60.70
8103;DHT22;4094;49.948;11.574;2023-04-25T02:17:42;13.20;60.80
8103;DHT22;4094;49.948;11.574;2023-04-25T02:20:13;13.20;60.70
8103;DHT22;4094;49.948;11.574;2023-04-25T02:22:45;13.20;60.80
8103;DHT22;4094;49.948;11.574;2023-04-25T02:25:14;13.20;60.90
8103;DHT22;4094;49.948;11.574;2023-04-25T02:27:44;13.20;61.00
8103;DHT22;4094;49.948;11.574;2023-04-25T02:30:14;13.20;60.90
8103;DHT22;4094;49.948;11.574;2023-04-25T02:32:43;13.20;61.00
8103;DHT22;4094;49.948;11.574;2023-04-25T02:35:12;13.20;61.00
8103;DHT22;4094;49.948;11.574;2023-04-25T02:37:42;13.20;60.80
8103;DHT22;4094;49.948;11.574;2023-04-25T02:40:12;13.20;60.60
8103;DHT22;4094;49.948;11.574;2023-04-25T02:42:41;13.20;60.60
8103;DHT22;4094;49.948;11.574;2023-04-25T02:45:14;13.10;60.70
8103;DHT22;4094;49.948;11.574;2023-04-25T02:47:43;13.10;60.80
8103;DHT22;4094;49.948;11.574;2023-04-25T02:50:12;13.00;60.80
8103;DHT22;4094;49.948;11.574;2023-04-25T02:52:42;13.00;61.00
8103;DHT22;4094;49.948;11.574;2023-04-25T02:55:17;13.00;61.00
8103;DHT22;4094;49.948;11.574;2023-04-25T02:57:47;13.00;61.10
8103;DHT22;4094;49.948;11.574;2023-04-25T03:00:27;13.00;61.00
8103;DHT22;4094;49.948;11.574;2023-04-25T03:02:57;13.00;61.10
8103;DHT22;4094;49.948;11.574;2023-04-25T03:05:26;13.00;61.40
8103;DHT22;4094;49.948;11.574;2023-04-25T03:07:55;13.00;61.60
8103;DHT22;4094;49.948;11.574;2023-04-25T03:10:26;13.00;61.90
8103;DHT22;4094;49.948;11.574;2023-04-25T03:12:59;13.00;62.00
8103;DHT22;4094;49.948;11.574;2023-04-25T03:15:28;13.00;62.00
8103;DHT22;4094;49.948;11.574;2023-04-25T03:17:59;13.00;61.80
8103;DHT22;4094;49.948;11.574;2023-04-25T03:20:28;13.10;62.10
8103;DHT22;4094;49.948;11.574;2023-04-25T03:22:58;13.10;61.70
8103;DHT22;4094;49.948;11.574;2023-04-25T03:25:30;13.10;61.50
8103;DHT22;4094;49.948;11.574;2023-04-25T03:28:00;13.00;61.50
8103;DHT22;4094;49.948;11.574;2023-04-25T03:30:29;13.00;61.70
8103;DHT22;4094;49.948;11.574;2023-04-25T03:32:58;13.00;61.80
8103;DHT22;4094;49.948;11.574;2023-04-25T03:35:28;13.00;62.00
8103;DHT22;4094;49.948;11.574;2023-04-25T03:37:58;13.00;62.20
8103;DHT22;4094;49.948;11.574;2023-04-25T03:40:32;13.00;62.40
8103;DHT22;4094;49.948;11.574;2023-04-25T03:43:14;13.00;62.80
8103;DHT22;4094;49.948;11.574;2023-04-25T03:45:50;13.00;62.60
8103;DHT22;4094;49.948;11.574;2023-04-25T03:48:22;13.00;62.60
8103;DHT22;4094;49.948;11.574;2023-04-25T03:50:54;13.00;63.00
8103;DHT22;4094;49.948;11.574;2023-04-25T03:53:24;13.00;63.00
8103;DHT22;4094;49.948;11.574;2023-04-25T03:56:13;13.00;62.70
8103;DHT22;4094;49.948;11.574;2023-04-25T03:58:45;13.10;62.60
8103;DHT22;4094;49.948;11.574;2023-04-25T04:01:16;13.10;62.60
8103;DHT22;4094;49.948;11.574;2023-04-25T04:03:46;13.10;62.70
8103;DHT22;4094;49.948;11.574;2023-04-25T04:06:16;13.10;62.60
8103;DHT22;4094;49.948;11.574;2023-04-25T04:08:50;13.10;62.80
8103;DHT22;4094;49.948;11.574;2023-04-25T04:11:20;13.10;63.10
8103;DHT22;4094;49.948;11.574;2023-04-25T04:13:50;13.10;63.00
8103;DHT22;4094;49.948;11.574;2023-04-25T04:16:19;13.10;62.60
8103;DHT22;4094;49.948;11.574;2023-04-25T04:18:49;13.10;62.30
8103;DHT22;4094;49.948;11.574;2023-04-25T04:21:18;13.10;62.60
8103;DHT22;4094;49.948;11.574;2023-04-25T04:23:47;13.10;62.80
8103;DHT22;4094;49.948;11.574;2023-04-25T04:26:17;13.10;62.70
8103;DHT22;4094;49.948;11.574;2023-04-25T04:29:09;13.10;62.90
8103;DHT22;4094;49.948;11.574;2023-04-25T04:31:48;13.10;62.90
8103;DHT22;4094;49.948;11.574;2023-04-25T04:34:17;13.10;62.40
8103;DHT22;4094;49.948;11.574;2023-04-25T04:36:47;13.10;62.40
8103;DHT22;4094;49.948;11.574;2023-04-25T04:39:17;13.10;62.40
8103;DHT22;4094;49.948;11.574;2023-04-25T04:42:15;13.10;62.40
8103;DHT22;4094;49.948;11.574;2023-04-25T04:44:55;13.10;62.50
8103;DHT22;4094;49.948;11.574;2023-04-25T04:47:40;13.10;62.70
8103;DHT22;4094;49.948;11.574;2023-04-25T04:50:18;13.10;62.80
8103;DHT22;4094;49.948;11.574;2023-04-25T04:53:20;13.10;63.20
8103;DHT22;4094;49.948;11.574;2023-04-25T04:56:01;13.10;63.50
8103;DHT22;4094;49.948;11.574;2023-04-25T04:58:57;13.10;63.90
8103;DHT22;4094;49.948;11.574;2023-04-25T05:01:44;13.00;63.70
8103;DHT22;4094;49.948;11.574;2023-04-25T05:04:20;13.10;64.00
8103;DHT22;4094;49.948;11.574;2023-04-25T05:07:05;13.00;63.90
8103;DHT22;4094;49.948;11.574;2023-04-25T05:09:46;13.00;63.90
8103;DHT22;4094;49.948;11.574;2023-04-25T05:12:42;12.90;64.20
8103;DHT22;4094;49.948;11.574;2023-04-25T05:15:30;12.90;64.00
8103;DHT22;4094;49.948;11.574;2023-04-25T05:18:24;12.90;64.00
8103;DHT22;4094;49.948;11.574;2023-04-25T05:21:04;12.90;63.60
8103;DHT22;4094;49.948;11.574;2023-04-25T05:23:46;12.80;64.20
8103;DHT22;4094;49.948;11.574;2023-04-25T05:26:34;12.80;63.70
8103;DHT22;4094;49.948;11.574;2023-04-25T05:29:21;12.80;63.90
8103;DHT22;4094;49.948;11.574;2023-04-25T05:32:11;12.70;64.20
8103;DHT22;4094;49.948;11.574;2023-04-25T05:34:42;12.70;64.50
8103;DHT22;4094;49.948;11.574;2023-04-25T05:37:21;12.70;64.70
8103;DHT22;4094;49.948;11.574;2023-04-25T05:39:56;12.60;64.10
8103;DHT22;4094;49.948;11.574;2023-04-25T05:42:42;12.60;63.50
8103;DHT22;4094;49.948;11.574;2023-04-25T05:45:36;12.50;63.40
8103;DHT22;4094;49.948;11.574;2023-04-25T05:48:28;12.40;63.00
8103;DHT22;4094;49.948;11.574;2023-04-25T05:51:22;12.40;63.10
8103;DHT22;4094;49.948;11.574;2023-04-25T05:54:07;12.30;63.40
8103;DHT22;4094;49.948;11.574;2023-04-25T05:56:36;12.20;63.00
8103;DHT22;4094;49.948;11.574;2023-04-25T05:59:05;12.10;63.00
8103;DHT22;4094;49.948;11.574;2023-04-25T06:01:35;12.00;63.30
8103;DHT22;4094;49.948;11.574;2023-04-25T06:04:04;12.00;63.60
8103;DHT22;4094;49.948;11.574;2023-04-25T06:06:35;12.00;63.80
8103;DHT22;4094;49.948;11.574;2023-04-25T06:09:05;11.90;63.90
8103;DHT22;4094;49.948;11.574;2023-04-25T06:11:34;11.90;64.20
8103;DHT22;4094;49.948;11.574;2023-04-25T06:14:04;11.90;64.30
8103;DHT22;4094;49.948;11.574;2023-04-25T06:16:35;11.90;64.50
8103;DHT22;4094;49.948;11.574;2023-04-25T06:19:04;11.90;64.50
8103;DHT22;4094;49.948;11.574;2023-04-25T06:21:35;11.90;64.50
8103;DHT22;4094;49.948;11.574;2023-04-25T06:24:05;11.90;64.70
8103;DHT22;4094;49.948;11.574;2023-04-25T06:26:34;11.90;64.80
8103;DHT22;4094;49.948;11.574;2023-04-25T06:29:04;11.90;64.90
8103;DHT22;4094;49.948;11.574;2023-04-25T06:31:33;11.90;64.90
8103;DHT22;4094;49.948;11.574;2023-04-25T06:34:03;12.00;65.00
8103;DHT22;4094;49.948;11.574;2023-04-25T06:36:38;12.00;64.70
8103;DHT22;4094;49.948;11.574;2023-04-25T06:39:12;12.00;64.20
8103;DHT22;4094;49.948;11.574;2023-04-25T06:41:41;12.00;65.10
8103;DHT22;4094;49.948;11.574;2023-04-25T06:44:31;12.00;64.80
8103;DHT22;4094;49.948;11.574;2023-04-25T06:47:00;12.10;64.90
8103;DHT22;4094;49.948;11.574;2023-04-25T06:49:30;12.10;64.50
8103;DHT22;4094;49.948;11.574;2023-04-25T06:52:00;12.10;64.60
8103;DHT22;4094;49.948;11.574;2023-04-25T06:54:30;12.10;64.90
8103;DHT22;4094;49.948;11.574;2023-04-25T06:57:05;12.10;64.50
8103;DHT22;4094;49.948;11.574;2023-04-25T06:59:35;12.10;64.40
8103;DHT22;4094;49.948;11.574;2023-04-25T07:02:05;12.20;63.90
8103;DHT22;4094;49.948;11.574;2023-04-25T07:04:34;12.20;63.60
8103;DHT22;4094;49.948;11.574;2023-04-25T07:07:05;12.20;63.90
8103;DHT22;4094;49.948;11.574;2023-04-25T07:09:44;12.20;63.70
8103;DHT22;4094;49.948;11.574;2023-04-25T07:12:13;12.20;63.60
8103;DHT22;4094;49.948;11.574;2023-04-25T07:14:44;12.20;63.40
8103;DHT22;4094;49.948;11.574;2023-04-25T07:17:13;12.20;63.50
8103;DHT22;4094;49.948;11.574;2023-04-25T07:19:43;12.30;63.40
8103;DHT22;4094;49.948;11.574;2023-04-25T07:22:14;12.30;63.60
8103;DHT22;4094;49.948;11.574;2023-04-25T07:24:43;12.30;63.60
8103;DHT22;4094;49.948;11.574;2023-04-25T07:27:19;12.40;63.40
8103;DHT22;4094;49.948;11.574;2023-04-25T07:29:56;12.40;63.30
8103;DHT22;4094;49.948;11.574;2023-04-25T07:32:26;12.50;64.40
8103;DHT22;4094;49.948;11.574;2023-04-25T07:34:55;12.50;64.80
8103;DHT22;4094;49.948;11.574;2023-04-25T07:37:26;12.60;65.40
8103;DHT22;4094;49.948;11.574;2023-04-25T07:40:04;12.80;65.20
8103;DHT22;4094;49.948;11.574;2023-04-25T07:42:34;12.90;64.30
8103;DHT22;4094;49.948;11.574;2023-04-25T07:45:05;13.00;63.90
8103;DHT22;4094;49.948;11.574;2023-04-25T07:47:34;13.10;63.10
8103;DHT22;4094;49.948;11.574;2023-04-25T07:50:06;13.10;63.00
8103;DHT22;4094;49.948;11.574;2023-04-25T07:52:37;13.20;63.10
8103;DHT22;4094;49.948;11.574;2023-04-25T07:55:16;13.20;62.30
8103;DHT22;4094;49.948;11.574;2023-04-25T07:58:06;13.20;62.10
8103;DHT22;4094;49.948;11.574;2023-04-25T08:00:38;13.20;62.30
8103;DHT22;4094;49.948;11.574;2023-04-25T08:03:37;13.10;62.30
8103;DHT22;4094;49.948;11.574;2023-04-25T08:06:14;13.10;62.40
8103;DHT22;4094;49.948;11.574;2023-04-25T08:09:11;13.10;62.20
8103;DHT22;4094;49.948;11.574;2023-04-25T08:11:42;13.10;62.40
8103;DHT22;4094;49.948;11.574;2023-04-25T08:14:15;13.10;62.70
8103;DHT22;4094;49.948;11.574;2023-04-25T08:16:45;13.10;63.00
8103;DHT22;4094;49.948;11.574;2023-04-25T08:19:15;13.10;62.80
8103;DHT22;4094;49.948;11.574;2023-04-25T08:21:46;13.10;62.80
8103;DHT22;4094;49.948;11.574;2023-04-25T08:24:22;13.10;62.80
8103;DHT22;4094;49.948;11.574;2023-04-25T08:26:51;13.10;62.70
8103;DHT22;4094;49.948;11.574;2023-04-25T08:29:24;13.10;62.80
8103;DHT22;4094;49.948;11.574;2023-04-25T08:31:54;13.10;62.70
8103;DHT22;4094;49.948;11.574;2023-04-25T08:34:23;13.20;62.40
8103;DHT22;4094;49.948;11.574;2023-04-25T08:36:53;13.20;62.00
8103;DHT22;4094;49.948;11.574;2023-04-25T08:39:50;13.20;62.00
8103;DHT22;4094;49.948;11.574;2023-04-25T08:42:24;13.20;62.20
8103;DHT22;4094;49.948;11.574;2023-04-25T08:44:56;13.30;62.20
8103;DHT22;4094;49.948;11.574;2023-04-25T08:47:33;13.40;62.20
8103;DHT22;4094;49.948;11.574;2023-04-25T08:50:03;13.50;61.80
8103;DHT22;4094;49.948;11.574;2023-04-25T08:52:36;13.50;61.60
8103;DHT22;4094;49.948;11.574;2023-04-25T08:55:09;13.60;61.80
8103;DHT22;4094;49.948;11.574;2023-04-25T08:57:41;13.60;61.30
8103;DHT22;4094;49.948;11.574;2023-04-25T09:00:12;13.70;61.50
8103;DHT22;4094;49.948;11.574;2023-04-25T09:02:45;13.70;61.10
8103;DHT22;4094;49.948;11.574;2023-04-25T09:05:15;13.70;60.20
8103;DHT22;4094;49.948;11.574;2023-04-25T09:07:48;13.70;60.50
8103;DHT22;4094;49.948;11.574;2023-04-25T09:10:19;13.70;60.60
8103;DHT22;4094;49.948;11.574;2023-04-25T09:13:02;13.70;60.20
8103;DHT22;4094;49.948;11.574;2023-04-25T09:15:48;13.60;59.80
8103;DHT22;4094;49.948;11.574;2023-04-25T09:18:39;13.50;59.80
8103;DHT22;4094;49.948;11.574;2023-04-25T09:21:22;13.50;60.00
8103;DHT22;4094;49.948;11.574;2023-04-25T09:23:51;13.50;60.50
8103;DHT22;4094;49.948;11.574;2023-04-25T09:26:25;13.50;60.70
8103;DHT22;4094;49.948;11.574;2023-04-25T09:29:05;13.50;60.70
8103;DHT22;4094;49.948;11.574;2023-04-25T09:31:39;13.60;60.40
8103;DHT22;4094;49.948;11.574;2023-04-25T09:34:10;13.70;60.70
8103;DHT22;4094;49.948;11.574;2023-04-25T09:36:47;13.80;60.90
8103;DHT22;4094;49.948;11.574;2023-04-25T09:39:29;13.90;59.60
8103;DHT22;4094;49.948;11.574;2023-04-25T09:42:14;14.10;60.50
8103;DHT22;4094;49.948;11.574;2023-04-25T09:44:44;14.20;59.80
8103;DHT22;4094;49.948;11.574;2023-04-25T09:47:16;14.30;58.90
8103;DHT22;4094;49.948;11.574;2023-04-25T09:49:46;14.40;58.40
8103;DHT22;4094;49.948;11.574;2023-04-25T09:52:16;14.40;57.70
8103;DHT22;4094;49.948;11.574;2023-04-25T09:55:07;14.40;57.20
8103;DHT22;4094;49.948;11.574;2023-04-25T09:57:38;14.30;57.50
8103;DHT22;4094;49.948;11.574;2023-04-25T10:00:09;14.30;57.60
8103;DHT22;4094;49.948;11.574;2023-04-25T10:02:46;14.30;57.30
8103;DHT22;4094;49.948;11.574;2023-04-25T10:05:35;14.30;57.10
8103;DHT22;4094;49.948;11.574;2023-04-25T10:08:06;14.30;56.80
8103;DHT22;4094;49.948;11.574;2023-04-25T10:10:37;14.20;56.70
8103;DHT22;4094;49.948;11.574;2023-04-25T10:13:08;14.20;57.00
8103;DHT22;4094;49.948;11.574;2023-04-25T10:15:38;14.20;56.70
8103;DHT22;4094;49.948;11.574;2023-04-25T10:18:09;14.30;56.70
8103;DHT22;4094;49.948;11.574;2023-04-25T10:20:38;14.20;56.10
8103;DHT22;4094;49.948;11.574;2023-04-25T10:23:13;14.30;55.80
8103;DHT22;4094;49.948;11.574;2023-04-25T10:25:43;14.30;55.50
8103;DHT22;4094;49.948;11.574;2023-04-25T10:28:14;14.40;55.70
8103;DHT22;4094;49.948;11.574;2023-04-25T10:30:57;14.50;55.40
8103;DHT22;4094;49.948;11.574;2023-04-25T10:33:32;14.60;55.00
8103;DHT22;4094;49.948;11.574;2023-04-25T10:36:09;14.70;55.10
8103;DHT22;4094;49.948;11.574;2023-04-25T10:38:40;14.80;54.70
8103;DHT22;4094;49.948;11.574;2023-04-25T10:41:11;14.80;54.60
8103;DHT22;4094;49.948;11.574;2023-04-25T10:43:43;14.80;54.70
8103;DHT22;4094;49.948;11.574;2023-04-25T10:46:16;14.70;53.80
8103;DHT22;4094;49.948;11.574;2023-04-25T10:48:48;14.70;53.60
8103;DHT22;4094;49.948;11.574;2023-04-25T10:51:20;14.60;53.20
8103;DHT22;4094;49.948;11.574;2023-04-25T10:54:00;14.60;53.90
8103;DHT22;4094;49.948;11.574;2023-04-25T10:56:30;14.60;54.00
8103;DHT22;4094;49.948;11.574;2023-04-25T10:59:10;14.60;53.80
8103;DHT22;4094;49.948;11.574;2023-04-25T11:01:40;14.60;52.70
8103;DHT22;4094;49.948;11.574;2023-04-25T11:04:20;14.60;52.90
8103;DHT22;4094;49.948;11.574;2023-04-25T11:07:06;14.60;53.40
8103;DHT22;4094;49.948;11.574;2023-04-25T11:09:38;14.70;54.20
8103;DHT22;4094;49.948;11.574;2023-04-25T11:12:09;14.70;54.00
8103;DHT22;4094;49.948;11.574;2023-04-25T11:14:41;14.80;53.40
8103;DHT22;4094;49.948;11.574;2023-04-25T11:17:10;14.90;53.80
8103;DHT22;4094;49.948;11.574;2023-04-25T11:19:40;15.00;53.60
8103;DHT22;4094;49.948;11.574;2023-04-25T11:22:10;15.00;52.10
8103;DHT22;4094;49.948;11.574;2023-04-25T11:24:39;15.10;52.30
8103;DHT22;4094;49.948;11.574;2023-04-25T11:27:08;15.10;52.00
8103;DHT22;4094;49.948;11.574;2023-04-25T11:29:38;15.20;51.60
8103;DHT22;4094;49.948;11.574;2023-04-25T11:32:09;15.20;51.70
8103;DHT22;4094;49.948;11.574;2023-04-25T11:34:38;15.20;51.20
8103;DHT22;4094;49.948;11.574;2023-04-25T11:37:07;15.20;51.50
8103;DHT22;4094;49.948;11.574;2023-04-25T11:39:37;15.20;51.10
8103;DHT22;4094;49.948;11.574;2023-04-25T11:42:07;15.20;49.70
8103;DHT22;4094;49.948;11.574;2023-04-25T11:44:41;15.20;50.70
8103;DHT22;4094;49.948;11.574;2023-04-25T11:47:11;15.30;50.70
8103;DHT22;4094;49.948;11.574;2023-04-25T11:49:41;15.30;50.30
8103;DHT22;4094;49.948;11.574;2023-04-25T11:52:10;15.30;50.40
8103;DHT22;4094;49.948;11.574;2023-04-25T11:54:39;15.40;50.10
8103;DHT22;4094;49.948;11.574;2023-04-25T11:57:09;15.40;49.70
8103;DHT22;4094;49.948;11.574;2023-04-25T11:59:38;15.40;49.60
8103;DHT22;4094;49.948;11.574;2023-04-25T12:02:08;15.40;49.60
8103;DHT22;4094;49.948;11.574;2023-04-25T12:04:41;15.40;49.50
8103;DHT22;4094;49.948;11.574;2023-04-25T12:07:10;15.40;49.40
8103;DHT22;4094;49.948;11.574;2023-04-25T12:09:40;15.30;49.40
8103;DHT22;4094;49.948;11.574;2023-04-25T12:12:10;15.30;49.60
8103;DHT22;4094;49.948;11.574;2023-04-25T12:14:39;15.30;49.50
8103;DHT22;4094;49.948;11.574;2023-04-25T12:17:09;15.30;50.10
8103;DHT22;4094;49.948;11.574;2023-04-25T12:19:41;15.20;49.60
8103;DHT22;4094;49.948;11.574;2023-04-25T12:22:20;15.30;49.40
8103;DHT22;4094;49.948;11.574;2023-04-25T12:24:50;15.30;49.90
8103;DHT22;4094;49.948;11.574;2023-04-25T12:27:21;15.30;50.00
8103;DHT22;4094;49.948;11.574;2023-04-25T12:29:52;15.40;50.30
8103;DHT22;4094;49.948;11.574;2023-04-25T12:32:21;15.40;50.00
8103;DHT22;4094;49.948;11.574;2023-04-25T12:34:52;15.40;50.40
8103;DHT22;4094;49.948;11.574;2023-04-25T12:37:22;15.40;50.10
8103;DHT22;4094;49.948;11.574;2023-04-25T12:39:52;15.40;50.10
8103;DHT22;4094;49.948;11.574;2023-04-25T12:42:21;15.50;49.30
8103;DHT22;4094;49.948;11.574;2023-04-25T12:44:50;15.50;49.50
8103;DHT22;4094;49.948;11.574;2023-04-25T12:47:20;15.50;49.50
8103;DHT22;4094;49.948;11.574;2023-04-25T12:49:49;15.50;49.80
8103;DHT22;4094;49.948;11.574;2023-04-25T12:52:20;15.60;49.90
8103;DHT22;4094;49.948;11.574;2023-04-25T12:54:49;15.60;49.20
8103;DHT22;4094;49.948;11.574;2023-04-25T12:57:19;15.60;49.00
8103;DHT22;4094;49.948;11.574;2023-04-25T12:59:48;15.60;48.70
8103;DHT22;4094;49.948;11.574;2023-04-25T13:02:17;15.50;48.20
8103;DHT22;4094;49.948;11.574;2023-04-25T13:04:47;15.50;48.10
8103;DHT22;4094;49.948;11.574;2023-04-25T13:07:16;15.50;48.60
8103;DHT22;4094;49.948;11.574;2023-04-25T13:09:47;15.40;48.40
8103;DHT22;4094;49.948;11.574;2023-04-25T13:12:17;15.40;48.60
8103;DHT22;4094;49.948;11.574;2023-04-25T13:14:46;15.40;48.90
8103;DHT22;4094;49.948;11.574;2023-04-25T13:17:15;15.40;49.50
8103;DHT22;4094;49.948;11.574;2023-04-25T13:19:45;15.40;49.30
8103;DHT22;4094;49.948;11.574;2023-04-25T13:22:14;15.50;49.00
8103;DHT22;4094;49.948;11.574;2023-04-25T13:24:44;15.50;49.00
8103;DHT22;4094;49.948;11.574;2023-04-25T13:27:15;15.50;49.50
8103;DHT22;4094;49.948;11.574;2023-04-25T13:29:44;15.50;49.60
8103;DHT22;4094;49.948;11.574;2023-04-25T13:32:14;15.60;49.20
8103;DHT22;4094;49.948;11.574;2023-04-25T13:34:43;15.60;49.80
8103;DHT22;4094;49.948;11.574;2023-04-25T13:37:12;15.50;48.80
8103;DHT22;4094;49.948;11.574;2023-04-25T13:39:41;15.50;49.20
8103;DHT22;4094;49.948;11.574;2023-04-25T13:42:10;15.50;49.40
8103;DHT22;4094;49.948;11.574;2023-04-25T13:44:41;15.50;49.00
8103;DHT22;4094;49.948;11.574;2023-04-25T13:47:10;15.50;49.20
8103;DHT22;4094;49.948;11.574;2023-04-25T13:49:40;15.40;49.00
8103;DHT22;4094;49.948;11.574;2023-04-25T13:52:09;15.40;49.30
8103;DHT22;4094;49.948;11.574;2023-04-25T13:54:39;15.40;48.50
8103;DHT22;4094;49.948;11.574;2023-04-25T13:57:08;15.30;47.90
8103;DHT22;4094;49.948;11.574;2023-04-25T13:59:40;15.30;48.40
8103;DHT22;4094;49.948;11.574;2023-04-25T14:02:10;15.30;48.20
8103;DHT22;4094;49.948;11.574;2023-04-25T14:04:40;15.30;47.90
8103;DHT22;4094;49.948;11.574;2023-04-25T14:07:09;15.20;47.70
8103;DHT22;4094;49.948;11.574;2023-04-25T14:09:38;15.20;47.60
8103;DHT22;4094;49.948;11.574;2023-04-25T14:12:08;15.10;47.70
8103;DHT22;4094;49.948;11.574;2023-04-25T14:14:38;15.10;47.80
8103;DHT22;4094;49.948;11.574;2023-04-25T14:17:09;15.00;48.00
8103;DHT22;4094;49.948;11.574;2023-04-25T14:19:39;15.10;48.50
8103;DHT22;4094;49.948;11.574;2023-04-25T14:22:11;15.10;48.40
8103;DHT22;4094;49.948;11.574;2023-04-25T14:24:40;15.00;48.00
8103;DHT22;4094;49.948;11.574;2023-04-25T14:27:10;15.00;47.90
8103;DHT22;4094;49.948;11.574;2023-04-25T14:29:39;15.00;47.90
8103;DHT22;4094;49.948;11.574;2023-04-25T14:32:10;15.00;47.60
8103;DHT22;4094;49.948;11.574;2023-04-25T14:34:40;14.90;48.40
8103;DHT22;4094;49.948;11.574;2023-04-25T14:37:09;14.90;47.60
8103;DHT22;4094;49.948;11.574;2023-04-25T14:39:38;14.80;47.30
8103;DHT22;4094;49.948;11.574;2023-04-25T14:42:07;14.80;48.00
8103;DHT22;4094;49.948;11.574;2023-04-25T14:44:37;14.80;48.20
8103;DHT22;4094;49.948;11.574;2023-04-25T14:47:07;14.80;48.00
8103;DHT22;4094;49.948;11.574;2023-04-25T14:49:38;14.70;48.20
8103;DHT22;4094;49.948;11.574;2023-04-25T14:52:07;14.70;48.10
8103;DHT22;4094;49.948;11.574;2023-04-25T14:54:36;14.60;48.20
8103;DHT22;4094;49.948;11.574;2023-04-25T14:57:06;14.60;48.60
8103;DHT22;4094;49.948;11.574;2023-04-25T14:59:35;14.60;48.70
8103;DHT22;4094;49.948;11.574;2023-04-25T15:02:05;14.50;49.00
8103;DHT22;4094;49.948;11.574;2023-04-25T15:04:34;14.50;49.40
8103;DHT22;4094;49.948;11.574;2023-04-25T15:07:05;14.50;49.40
8103;DHT22;4094;49.948;11.574;2023-04-25T15:09:34;14.40;49.40
8103;DHT22;4094;49.948;11.574;2023-04-25T15:12:04;14.40;49.50
8103;DHT22;4094;49.948;11.574;2023-04-25T15:14:33;14.40;49.30
8103;DHT22;4094;49.948;11.574;2023-04-25T15:17:02;14.40;49.40
8103;DHT22;4094;49.948;11.574;2023-04-25T15:19:32;14.50;49.70
8103;DHT22;4094;49.948;11.574;2023-04-25T15:22:01;14.50;50.00
8103;DHT22;4094;49.948;11.574;2023-04-25T15:24:32;14.60;49.60
8103;DHT22;4094;49.948;11.574;2023-04-25T15:27:01;14.70;49.20
8103;DHT22;4094;49.948;11.574;2023-04-25T15:29:32;14.80;48.80
8103;DHT22;4094;49.948;11.574;2023-04-25T15:32:01;14.80;48.70
8103;DHT22;4094;49.948;11.574;2023-04-25T15:34:30;14.80;48.10
8103;DHT22;4094;49.948;11.574;2023-04-25T15:37:02;14.80;48.10
8103;DHT22;4094;49.948;11.574;2023-04-25T15:39:32;14.80;47.60
8103;DHT22;4094;49.948;11.574;2023-04-25T15:42:02;14.80;47.70
8103;DHT22;4094;49.948;11.574;2023-04-25T15:44:32;14.80;48.20
8103;DHT22;4094;49.948;11.574;2023-04-25T15:47:02;14.80;48.00
8103;DHT22;4094;49.948;11.574;2023-04-25T15:49:31;14.70;48.10
8103;DHT22;4094;49.948;11.574;2023-04-25T15:52:00;14.70;48.30
8103;DHT22;4094;49.948;11.574;2023-04-25T15:54:31;14.70;47.90
8103;DHT22;4094;49.948;11.574;2023-04-25T15:57:00;14.70;47.70
8103;DHT22;4094;49.948;11.574;2023-04-25T15:59:30;14.60;47.80
8103;DHT22;4094;49.948;11.574;2023-04-25T16:02:01;14.60;47.90
8103;DHT22;4094;49.948;11.574;2023-04-25T16:04:31;14.60;48.70
8103;DHT22;4094;49.948;11.574;2023-04-25T16:07:02;14.50;48.30
8103;DHT22;4094;49.948;11.574;2023-04-25T16:09:36;14.50;48.00
8103;DHT22;4094;49.948;11.574;2023-04-25T16:12:07;14.40;48.30
8103;DHT22;4094;49.948;11.574;2023-04-25T16:14:36;14.40;48.30
8103;DHT22;4094;49.948;11.574;2023-04-25T16:17:06;14.40;48.10
8103;DHT22;4094;49.948;11.574;2023-04-25T16:19:35;14.40;48.70